Time;durP1;ratioP1;P1;durP2;ratioP2;P2;SDS_P1;SDS_P2;PMS_P1;PMS_P2;Temp;Humidity;BMP_temperature;BMP_pressure;BME280_temperature;BME280_humidity;BME280_pressure;Samples;Min_cycle;Max_cycle;Signal;HPM_P1;HPM_P2
2023/12/18 00:02:06;;;;;;;4.10;3.80;;;19.50;44.20;;;;;;4992780;28;20738;-67
2023/12/18 00:04:31;;;;;;;4.57;4.27;;;19.40;44.20;;;;;;4988409;28;20535;-67
2023/12/18 00:06:57;;;;;;;4.10;3.80;;;19.50;44.20;;;;;;4985474;28;20230;-67
2023/12/18 00:09:22;;;;;;;4.40;4.10;;;19.40;44.20;;;;;;4987841;28;20231;-66
2023/12/18 00:11:47;;;;;;;4.50;4.10;;;19.50;44.20;;;;;;4992316;28;20302;-67
2023/12/18 00:14:13;;;;;;;4.07;3.87;;;19.50;44.20;;;;;;4992338;28;20322;-67
2023/12/18 00:16:39;;;;;;;4.00;3.80;;;19.50;44.20;;;;;;4995267;28;20272;-66
2023/12/18 00:19:05;;;;;;;3.40;3.20;;;19.50;44.20;;;;;;4999805;28;20261;-67
2023/12/18 00:21:30;;;;;;;4.03;3.83;;;19.50;44.20;;;;;;4998530;28;20228;-67
2023/12/18 00:23:56;;;;;;;4.23;4.03;;;19.40;44.20;;;;;;4997998;28;20585;-67
2023/12/18 00:26:23;;;;;;;4.10;3.80;;;19.40;44.20;;;;;;4999626;28;20356;-67
2023/12/18 00:28:48;;;;;;;3.90;3.60;;;19.50;44.20;;;;;;5004997;28;20317;-66
2023/12/18 00:31:14;;;;;;;3.90;3.70;;;19.40;44.20;;;;;;4993429;28;20458;-67
2023/12/18 00:33:39;;;;;;;3.60;3.40;;;19.40;44.10;;;;;;4986814;28;20271;-67
2023/12/18 00:36:05;;;;;;;3.80;3.47;;;19.40;44.10;;;;;;4986977;28;20572;-66
2023/12/18 00:38:31;;;;;;;3.90;3.70;;;19.40;44.20;;;;;;4997933;28;20231;-67
2023/12/18 00:40:56;;;;;;;3.50;3.17;;;19.40;44.20;;;;;;4993347;28;20216;-66
2023/12/18 00:43:22;;;;;;;3.67;3.47;;;19.40;44.20;;;;;;4993388;28;20239;-67
2023/12/18 00:45:47;;;;;;;3.40;3.20;;;19.40;44.20;;;;;;4989836;28;20363;-67
2023/12/18 00:48:13;;;;;;;3.60;3.40;;;19.40;44.20;;;;;;4986280;28;20241;-66
2023/12/18 00:50:39;;;;;;;3.40;3.20;;;19.40;44.20;;;;;;4992283;28;20224;-67
2023/12/18 00:53:04;;;;;;;3.30;3.10;;;19.40;44.20;;;;;;4991983;28;20823;-66
2023/12/18 00:55:30;;;;;;;3.33;3.13;;;19.40;44.20;;;;;;5000393;28;20232;-67
2023/12/18 00:57:55;;;;;;;3.30;3.10;;;19.40;44.20;;;;;;4989965;28;20246;-67
2023/12/18 01:00:22;;;;;;;3.17;2.97;;;19.40;44.20;;;;;;4996274;28;20231;-66
2023/12/18 01:02:47;;;;;;;3.83;3.60;;;19.40;44.20;;;;;;4995220;28;20227;-67
2023/12/18 01:05:16;;;;;;;4.40;4.20;;;19.40;44.20;;;;;;4992629;28;20511;-66
2023/12/18 01:07:42;;;;;;;3.40;3.20;;;19.40;44.20;;;;;;4985798;28;20736;-66
2023/12/18 01:10:08;;;;;;;3.63;3.40;;;19.40;44.20;;;;;;4988323;28;20469;-66
2023/12/18 01:12:34;;;;;;;3.50;3.30;;;19.40;44.20;;;;;;4989732;28;20805;-67
2023/12/18 01:15:00;;;;;;;3.37;3.10;;;19.40;44.10;;;;;;4990726;28;20447;-67
2023/12/18 01:17:26;;;;;;;3.77;3.57;;;19.40;44.20;;;;;;4992560;28;20521;-67
2023/12/18 01:19:51;;;;;;;3.30;3.10;;;19.40;44.20;;;;;;4989943;28;20242;-66
2023/12/18 01:22:17;;;;;;;3.60;3.37;;;19.40;44.20;;;;;;4992776;28;20227;-67
2023/12/18 01:24:42;;;;;;;3.27;3.07;;;19.40;44.20;;;;;;4984350;28;20220;-66
2023/12/18 01:27:08;;;;;;;3.23;3.03;;;19.40;44.20;;;;;;4990109;28;20242;-66
2023/12/18 01:29:33;;;;;;;3.03;2.83;;;19.40;44.20;;;;;;4987478;28;20680;-66
2023/12/18 01:31:59;;;;;;;3.23;3.03;;;19.40;44.20;;;;;;4985461;28;20242;-67
2023/12/18 01:34:24;;;;;;;3.33;3.13;;;19.40;44.20;;;;;;4992833;28;20281;-66
2023/12/18 01:36:50;;;;;;;3.17;2.97;;;19.40;44.20;;;;;;4992629;28;20357;-66
2023/12/18 01:39:16;;;;;;;3.00;2.80;;;19.40;44.20;;;;;;4989863;28;20598;-66
2023/12/18 01:41:41;;;;;;;3.47;3.20;;;19.40;44.20;;;;;;4992205;28;20723;-66
2023/12/18 01:44:07;;;;;;;3.30;3.10;;;19.40;44.20;;;;;;4985398;28;20760;-67
2023/12/18 01:46:35;;;;;;;3.17;2.97;;;19.40;44.20;;;;;;4984193;28;20554;-66
2023/12/18 01:49:01;;;;;;;3.10;2.90;;;19.40;44.20;;;;;;4989152;28;20306;-66
2023/12/18 01:51:27;;;;;;;3.57;3.37;;;19.40;44.20;;;;;;4980441;28;20455;-67
2023/12/18 01:53:55;;;;;;;3.77;3.47;;;19.40;44.10;;;;;;5000062;28;20434;-66
2023/12/18 01:56:25;;;;;;;3.23;3.03;;;19.40;44.20;;;;;;4988025;28;20439;-66
2023/12/18 01:58:53;;;;;;;2.87;2.67;;;19.40;44.20;;;;;;4986256;28;20522;-66
2023/12/18 02:01:18;;;;;;;3.03;2.87;;;19.40;44.20;;;;;;4986180;28;20918;-67
2023/12/18 02:03:44;;;;;;;3.33;3.13;;;19.40;44.20;;;;;;4991662;28;20518;-66
2023/12/18 02:06:13;;;;;;;3.13;2.93;;;19.40;44.20;;;;;;4991365;28;20310;-66
2023/12/18 02:08:39;;;;;;;2.70;2.50;;;19.40;44.20;;;;;;4992807;28;20841;-66
2023/12/18 02:11:05;;;;;;;3.43;3.23;;;19.40;44.20;;;;;;4991727;28;21812;-66
2023/12/18 02:13:30;;;;;;;2.77;2.67;;;19.40;44.20;;;;;;4988990;28;20481;-66
2023/12/18 02:15:57;;;;;;;3.10;2.90;;;19.40;44.20;;;;;;4986936;28;20223;-66
2023/12/18 02:18:23;;;;;;;2.40;2.30;;;19.40;44.20;;;;;;4987733;28;20287;-66
2023/12/18 02:20:49;;;;;;;3.20;3.00;;;19.40;44.20;;;;;;4982182;28;21036;-66
2023/12/18 02:23:14;;;;;;;2.77;2.63;;;19.40;44.20;;;;;;4998681;28;20227;-66
2023/12/18 02:25:40;;;;;;;2.47;2.37;;;19.40;44.10;;;;;;5002199;28;20301;-65
2023/12/18 02:28:08;;;;;;;2.73;2.53;;;19.40;44.20;;;;;;4992687;28;20232;-65
2023/12/18 02:30:34;;;;;;;2.30;2.13;;;19.40;44.10;;;;;;4998264;28;20334;-66
2023/12/18 02:33:00;;;;;;;3.10;2.90;;;19.40;44.20;;;;;;4990219;28;20927;-66
2023/12/18 02:35:26;;;;;;;3.27;3.07;;;19.40;44.50;;;;;;4988538;28;20231;-66
2023/12/18 02:37:51;;;;;;;3.27;3.07;;;19.40;44.20;;;;;;4993358;28;20223;-66
2023/12/18 02:40:17;;;;;;;2.70;2.50;;;19.40;44.10;;;;;;4992894;28;20475;-66
2023/12/18 02:42:43;;;;;;;3.00;2.80;;;19.40;44.20;;;;;;4994675;28;20227;-66
2023/12/18 02:45:09;;;;;;;2.80;2.60;;;19.40;44.20;;;;;;4984320;28;20220;-66
2023/12/18 02:47:34;;;;;;;2.40;2.30;;;19.40;44.20;;;;;;4998232;28;20223;-66
2023/12/18 02:50:00;;;;;;;2.80;2.70;;;19.40;44.20;;;;;;4990546;28;20266;-66
2023/12/18 02:52:25;;;;;;;2.50;2.40;;;19.40;44.20;;;;;;4994055;28;20309;-66
2023/12/18 02:54:51;;;;;;;2.30;2.20;;;19.40;44.20;;;;;;4991944;28;20302;-67
2023/12/18 02:57:16;;;;;;;2.97;2.77;;;19.40;44.20;;;;;;4993760;28;22214;-66
2023/12/18 02:59:42;;;;;;;2.73;2.53;;;19.40;44.20;;;;;;4995853;28;20386;-66
2023/12/18 03:02:08;;;;;;;2.70;2.60;;;19.40;44.20;;;;;;4989736;28;22812;-65
2023/12/18 03:04:33;;;;;;;2.63;2.53;;;19.40;44.20;;;;;;4994225;28;20220;-66
2023/12/18 03:06:59;;;;;;;2.50;2.40;;;19.40;44.20;;;;;;4995022;28;20676;-66
2023/12/18 03:09:24;;;;;;;2.10;2.00;;;19.40;44.20;;;;;;4989652;28;20228;-65
2023/12/18 03:11:50;;;;;;;2.63;2.43;;;19.40;44.20;;;;;;4996344;28;20227;-66
2023/12/18 03:14:15;;;;;;;2.77;2.67;;;19.40;44.20;;;;;;4986728;28;20349;-66
2023/12/18 03:16:41;;;;;;;2.77;2.57;;;19.30;44.10;;;;;;4995972;28;20223;-66
2023/12/18 03:19:06;;;;;;;2.43;2.33;;;19.30;44.10;;;;;;4992257;28;20246;-66
2023/12/18 03:21:32;;;;;;;3.17;2.97;;;19.40;44.10;;;;;;4986401;28;20349;-66
2023/12/18 03:23:58;;;;;;;2.33;2.23;;;19.40;44.20;;;;;;4983443;28;20223;-66
2023/12/18 03:26:24;;;;;;;2.10;2.00;;;19.30;44.10;;;;;;4992128;28;20227;-66
2023/12/18 03:28:49;;;;;;;2.27;2.17;;;19.40;44.20;;;;;;4997243;28;20282;-66
2023/12/18 03:31:15;;;;;;;2.50;2.40;;;19.40;44.20;;;;;;5000406;28;20297;-66
2023/12/18 03:33:41;;;;;;;2.27;2.17;;;19.40;44.10;;;;;;5002410;28;20274;-66
2023/12/18 03:36:07;;;;;;;2.40;2.30;;;19.30;44.10;;;;;;4997097;28;20692;-66
2023/12/18 03:38:33;;;;;;;2.47;2.37;;;19.30;44.10;;;;;;5001877;28;20917;-66
2023/12/18 03:40:59;;;;;;;10.53;2.20;;;19.40;44.10;;;;;;4990250;28;20574;-66
2023/12/18 03:43:25;;;;;;;2.63;2.40;;;19.30;44.10;;;;;;4989033;28;20239;-66
2023/12/18 03:45:50;;;;;;;2.03;1.93;;;19.40;44.10;;;;;;4986198;28;20231;-65
2023/12/18 03:48:16;;;;;;;3.70;2.20;;;19.40;44.20;;;;;;4998558;28;20245;-66
2023/12/18 03:50:42;;;;;;;2.20;2.10;;;19.30;44.10;;;;;;4990968;28;20239;-66
2023/12/18 03:53:08;;;;;;;2.43;2.33;;;19.40;44.20;;;;;;4998305;28;20215;-66
2023/12/18 03:55:34;;;;;;;2.40;2.30;;;19.30;44.00;;;;;;4990249;28;20439;-66
2023/12/18 03:58:00;;;;;;;2.60;2.40;;;19.30;44.10;;;;;;4992444;28;20502;-66
2023/12/18 04:00:26;;;;;;;2.30;2.20;;;19.30;44.90;;;;;;4987743;28;21468;-66
2023/12/18 04:02:52;;;;;;;2.23;2.13;;;19.30;44.00;;;;;;4992318;28;20319;-68
2023/12/18 04:05:18;;;;;;;2.10;2.00;;;19.30;44.00;;;;;;4990004;28;20478;-67
2023/12/18 04:07:43;;;;;;;2.53;2.33;;;19.30;44.10;;;;;;4995788;28;20597;-67
2023/12/18 04:10:09;;;;;;;2.23;2.10;;;19.30;44.10;;;;;;4988615;28;20231;-67
2023/12/18 04:12:36;;;;;;;2.50;2.40;;;19.30;44.00;;;;;;4980068;28;20238;-67
2023/12/18 04:15:01;;;;;;;3.90;2.40;;;19.30;44.10;;;;;;4991839;28;20465;-64
2023/12/18 04:17:27;;;;;;;2.27;2.17;;;19.30;44.10;;;;;;4995369;28;21038;-64
2023/12/18 04:19:52;;;;;;;2.10;2.00;;;19.30;44.10;;;;;;4997435;28;20270;-65
2023/12/18 04:22:18;;;;;;;2.23;2.03;;;19.30;44.10;;;;;;4989117;28;20223;-64
2023/12/18 04:24:43;;;;;;;2.23;2.13;;;19.30;44.10;;;;;;4985691;28;20227;-64
2023/12/18 04:27:09;;;;;;;3.23;3.00;;;19.30;44.10;;;;;;4984189;28;20220;-62
2023/12/18 04:29:34;;;;;;;2.90;2.23;;;19.40;44.20;;;;;;4988125;28;20231;-64
2023/12/18 04:32:00;;;;;;;2.37;2.23;;;19.40;44.10;;;;;;4991273;28;20683;-64
2023/12/18 04:34:26;;;;;;;2.00;1.90;;;19.40;44.10;;;;;;4981505;28;20227;-64
2023/12/18 04:36:52;;;;;;;2.30;2.20;;;19.30;44.00;;;;;;4983929;28;20446;-64
2023/12/18 04:39:17;;;;;;;2.00;1.90;;;19.30;43.90;;;;;;4993282;28;20315;-64
2023/12/18 04:41:44;;;;;;;2.13;1.93;;;19.30;43.90;;;;;;4991302;28;20235;-64
2023/12/18 04:44:10;;;;;;;2.30;2.13;;;19.40;44.00;;;;;;4992568;28;20216;-64
2023/12/18 04:46:36;;;;;;;2.13;2.03;;;19.40;44.10;;;;;;4997928;28;20493;-64
2023/12/18 04:49:02;;;;;;;1.80;1.70;;;19.40;44.00;;;;;;4988676;28;20235;-65
2023/12/18 04:51:29;;;;;;;1.87;1.77;;;19.40;44.00;;;;;;4998752;28;20215;-65
2023/12/18 04:53:55;;;;;;;2.27;2.17;;;19.40;44.10;;;;;;4991463;28;20457;-65
2023/12/18 04:56:21;;;;;;;1.83;1.73;;;19.30;44.00;;;;;;4991551;28;20911;-64
2023/12/18 04:58:46;;;;;;;2.00;1.90;;;19.30;43.80;;;;;;4989925;28;20446;-63
2023/12/18 05:01:12;;;;;;;1.67;1.57;;;19.40;44.00;;;;;;4991652;28;20235;-65
2023/12/18 05:03:37;;;;;;;2.00;1.90;;;19.40;44.00;;;;;;4980456;28;20215;-65
2023/12/18 05:06:03;;;;;;;2.10;2.00;;;19.30;44.00;;;;;;4980821;28;20238;-64
2023/12/18 05:08:29;;;;;;;4.63;2.27;;;19.40;44.00;;;;;;4996133;28;20227;-64
2023/12/18 05:10:55;;;;;;;1.90;1.80;;;19.40;43.80;;;;;;4990523;28;20790;-64
2023/12/18 05:13:20;;;;;;;2.67;2.47;;;19.40;43.80;;;;;;4990896;28;20303;-64
2023/12/18 05:15:46;;;;;;;1.93;1.83;;;19.40;43.70;;;;;;4988337;28;20471;-64
2023/12/18 05:18:12;;;;;;;1.77;1.67;;;19.40;44.30;;;;;;4992138;28;20220;-64
2023/12/18 05:20:38;;;;;;;2.00;1.90;;;19.50;43.60;;;;;;4992315;28;20231;-64
2023/12/18 05:23:03;;;;;;;2.00;1.90;;;19.50;43.60;;;;;;4985398;28;20810;-64
2023/12/18 05:25:29;;;;;;;6.30;2.77;;;19.50;43.50;;;;;;4980852;28;20306;-68
2023/12/18 05:27:55;;;;;;;1.87;1.77;;;19.50;43.40;;;;;;4988117;28;20218;-65
2023/12/18 05:30:21;;;;;;;2.13;1.80;;;19.50;43.30;;;;;;4985472;28;20239;-64
2023/12/18 05:32:46;;;;;;;2.87;1.90;;;19.50;43.40;;;;;;4993370;28;20243;-64
2023/12/18 05:35:12;;;;;;;2.00;1.90;;;19.50;43.30;;;;;;4992204;28;21066;-65
2023/12/18 05:37:37;;;;;;;2.37;2.27;;;19.50;43.30;;;;;;4986513;28;20298;-65
2023/12/18 05:40:03;;;;;;;1.70;1.40;;;19.50;43.40;;;;;;4988253;28;20581;-65
2023/12/18 05:42:29;;;;;;;1.87;1.77;;;19.50;43.30;;;;;;4984354;28;20256;-64
2023/12/18 05:44:54;;;;;;;1.83;1.73;;;19.50;43.30;;;;;;4996097;28;20532;-64
2023/12/18 05:47:20;;;;;;;2.00;1.90;;;19.50;43.30;;;;;;4994463;28;20221;-65
2023/12/18 05:49:45;;;;;;;2.20;2.00;;;19.50;43.30;;;;;;4988780;28;20231;-65
2023/12/18 05:52:11;;;;;;;2.07;1.97;;;19.50;43.30;;;;;;4986260;28;20234;-65
2023/12/18 05:54:37;;;;;;;2.77;2.10;;;19.50;43.30;;;;;;4978304;28;20227;-68
2023/12/18 05:57:03;;;;;;;2.00;1.90;;;19.50;43.20;;;;;;4986764;28;20734;-69
2023/12/18 05:59:29;;;;;;;4.23;2.37;;;19.50;43.30;;;;;;4990011;28;20455;-69
2023/12/18 06:01:55;;;;;;;2.63;2.00;;;19.50;43.30;;;;;;4986075;28;20314;-72
2023/12/18 06:04:21;;;;;;;5.97;1.77;;;19.50;43.30;;;;;;4983089;28;20227;-69
2023/12/18 06:06:47;;;;;;;2.30;2.10;;;19.50;43.20;;;;;;4998088;28;20989;-69
2023/12/18 06:09:13;;;;;;;2.00;1.90;;;19.50;43.20;;;;;;4993358;28;20423;-65
2023/12/18 06:11:39;;;;;;;1.73;1.63;;;19.50;43.90;;;;;;4990314;28;20238;-66
2023/12/18 06:14:04;;;;;;;3.10;1.80;;;19.50;43.10;;;;;;4991083;28;20443;-66
2023/12/18 06:16:30;;;;;;;1.80;1.70;;;19.50;43.00;;;;;;4993637;28;20223;-66
2023/12/18 06:18:55;;;;;;;2.10;1.90;;;19.50;43.00;;;;;;4997282;28;20227;-66
2023/12/18 06:21:21;;;;;;;1.93;1.80;;;19.50;43.00;;;;;;4998477;28;20228;-66
2023/12/18 06:23:46;;;;;;;2.13;2.03;;;19.50;43.00;;;;;;5008396;28;20274;-66
2023/12/18 06:26:12;;;;;;;1.80;1.70;;;19.50;42.90;;;;;;5000555;28;21087;-66
2023/12/18 06:28:37;;;;;;;2.30;2.20;;;19.40;42.80;;;;;;4990452;28;20354;-66
2023/12/18 06:31:03;;;;;;;2.90;2.70;;;19.40;42.80;;;;;;4991507;28;20694;-66
2023/12/18 06:33:29;;;;;;;16.50;10.73;;;19.40;42.80;;;;;;4988187;28;20327;-66
2023/12/18 06:35:54;;;;;;;3.07;2.87;;;19.40;42.80;;;;;;4995374;28;20227;-66
2023/12/18 06:38:20;;;;;;;2.20;2.10;;;19.50;42.70;;;;;;4996550;28;20220;-66
2023/12/18 06:40:46;;;;;;;2.33;2.23;;;19.50;42.80;;;;;;4997978;28;21105;-66
2023/12/18 06:43:11;;;;;;;3.10;2.90;;;19.40;42.70;;;;;;4983010;28;20277;-66
2023/12/18 06:45:37;;;;;;;2.73;2.53;;;19.40;42.70;;;;;;4991655;28;20224;-66
2023/12/18 06:48:03;;;;;;;2.90;2.60;;;19.40;42.70;;;;;;4995698;28;20664;-66
2023/12/18 06:50:29;;;;;;;2.70;2.50;;;19.40;42.70;;;;;;4990151;28;20718;-66
2023/12/18 06:52:55;;;;;;;2.83;2.63;;;19.40;42.70;;;;;;4995738;28;20600;-65
2023/12/18 06:55:21;;;;;;;2.77;2.57;;;19.40;42.70;;;;;;4993670;28;20445;-66
2023/12/18 06:57:46;;;;;;;2.70;2.50;;;19.40;42.70;;;;;;4997920;28;20314;-67
2023/12/18 07:00:12;;;;;;;3.57;3.03;;;19.40;42.70;;;;;;4983194;28;20235;-67
2023/12/18 07:02:38;;;;;;;3.00;2.80;;;19.40;42.70;;;;;;4997848;28;20234;-66
2023/12/18 07:05:04;;;;;;;4.53;3.30;;;19.40;42.70;;;;;;5004519;28;20468;-66
2023/12/18 07:07:30;;;;;;;3.70;3.40;;;19.40;42.70;;;;;;4993872;28;20234;-66
2023/12/18 07:09:55;;;;;;;3.23;2.93;;;19.40;42.80;;;;;;5000571;28;20490;-66
2023/12/18 07:12:21;;;;;;;3.53;3.00;;;19.40;42.70;;;;;;4998706;28;20254;-65
2023/12/18 07:14:47;;;;;;;2.73;2.53;;;19.30;42.70;;;;;;4993919;28;20349;-66
2023/12/18 07:17:12;;;;;;;3.47;3.17;;;19.40;42.70;;;;;;4996486;28;20232;-66
2023/12/18 07:19:39;;;;;;;3.67;3.47;;;19.40;42.70;;;;;;4993494;28;20246;-66
2023/12/18 07:22:05;;;;;;;4.07;3.47;;;19.40;42.70;;;;;;4995104;28;20865;-66
2023/12/18 07:24:31;;;;;;;3.23;2.97;;;19.30;42.60;;;;;;4994773;28;20469;-66
2023/12/18 07:26:56;;;;;;;3.20;3.00;;;19.30;42.60;;;;;;4995024;28;20439;-66
2023/12/18 07:29:22;;;;;;;3.40;3.17;;;19.30;42.60;;;;;;4993523;28;20734;-66
2023/12/18 07:31:48;;;;;;;3.77;3.47;;;19.40;42.70;;;;;;4991423;28;20230;-65
2023/12/18 07:34:13;;;;;;;4.77;3.20;;;19.30;42.60;;;;;;4994311;28;20224;-66
2023/12/18 07:36:40;;;;;;;3.63;3.33;;;19.30;42.60;;;;;;5004040;28;20330;-65
2023/12/18 07:39:06;;;;;;;3.23;2.97;;;19.30;42.60;;;;;;5000336;28;20675;-65
2023/12/18 07:41:32;;;;;;;3.80;3.50;;;19.30;42.60;;;;;;4999136;28;20439;-66
2023/12/18 07:43:58;;;;;;;4.23;3.60;;;19.30;42.60;;;;;;5004371;28;20435;-66
2023/12/18 07:46:23;;;;;;;3.37;3.17;;;19.30;42.60;;;;;;5001799;28;20668;-66
2023/12/18 07:48:49;;;;;;;4.30;4.00;;;19.30;42.60;;;;;;4999323;28;20220;-66
2023/12/18 07:51:15;;;;;;;4.00;3.80;;;19.30;42.60;;;;;;5000043;28;20309;-66
2023/12/18 07:53:41;;;;;;;4.10;3.70;;;19.30;42.60;;;;;;4993397;28;20234;-66
2023/12/18 07:56:07;;;;;;;4.20;3.90;;;19.30;42.60;;;;;;4999272;28;20816;-66
2023/12/18 07:58:32;;;;;;;4.00;3.70;;;19.30;42.60;;;;;;5001327;28;20676;-66
2023/12/18 08:00:58;;;;;;;3.87;3.57;;;19.30;42.60;;;;;;5000206;28;20226;-65
2023/12/18 08:03:24;;;;;;;3.80;3.50;;;19.30;42.60;;;;;;4997020;28;20260;-68
2023/12/18 08:05:49;;;;;;;4.83;4.43;;;19.30;42.60;;;;;;4995974;28;20232;-66
2023/12/18 08:08:15;;;;;;;4.47;4.13;;;19.30;42.60;;;;;;4997013;28;20687;-65
2023/12/18 08:10:42;;;;;;;4.03;3.73;;;19.30;42.60;;;;;;4998107;28;20230;-65
2023/12/18 08:13:08;;;;;;;5.00;4.00;;;19.30;42.60;;;;;;4996372;28;20223;-66
2023/12/18 08:15:34;;;;;;;4.90;4.57;;;19.20;42.50;;;;;;4993195;28;20444;-66
2023/12/18 08:17:59;;;;;;;4.33;4.03;;;19.30;42.60;;;;;;4999714;28;20229;-66
2023/12/18 08:20:25;;;;;;;4.70;4.40;;;19.30;42.60;;;;;;4999101;28;20322;-66
2023/12/18 08:22:50;;;;;;;4.00;3.67;;;19.30;42.60;;;;;;5003131;28;20586;-66
2023/12/18 08:25:16;;;;;;;4.80;4.40;;;19.30;42.60;;;;;;5008698;28;20582;-66
2023/12/18 08:27:41;;;;;;;3.90;3.60;;;19.30;42.60;;;;;;5008922;28;20224;-66
2023/12/18 08:30:10;;;;;;;5.13;4.83;;;19.30;42.60;;;;;;5010455;28;20222;-66
2023/12/18 08:32:37;;;;;;;5.30;4.90;;;19.30;42.60;;;;;;5007888;28;20231;-66
2023/12/18 08:35:03;;;;;;;4.80;4.07;;;19.30;43.30;;;;;;4994037;28;20469;-66
2023/12/18 08:37:28;;;;;;;4.27;4.03;;;19.30;42.60;;;;;;4994352;28;20457;-66
2023/12/18 08:39:55;;;;;;;4.77;4.37;;;19.30;42.60;;;;;;4993801;28;20338;-66
2023/12/18 08:42:22;;;;;;;5.10;4.70;;;19.30;42.60;;;;;;5001318;28;20245;-65
2023/12/18 08:44:48;;;;;;;4.47;4.07;;;19.30;42.60;;;;;;4995054;28;20440;-66
2023/12/18 08:47:13;;;;;;;5.40;4.83;;;19.30;42.60;;;;;;4994607;28;20822;-66
2023/12/18 08:49:39;;;;;;;5.67;4.70;;;19.30;42.60;;;;;;4994211;28;20240;-66
2023/12/18 08:52:05;;;;;;;4.33;3.93;;;19.30;42.60;;;;;;4992430;28;20258;-66
2023/12/18 08:54:30;;;;;;;4.87;4.30;;;19.30;42.60;;;;;;4995290;28;20281;-66
2023/12/18 08:56:56;;;;;;;4.90;4.50;;;19.30;42.60;;;;;;4998668;28;20243;-66
2023/12/18 08:59:21;;;;;;;4.93;4.63;;;19.30;42.60;;;;;;4991412;28;20227;-66
2023/12/18 09:01:47;;;;;;;4.67;4.27;;;19.20;42.60;;;;;;4999622;28;20938;-66
2023/12/18 09:04:12;;;;;;;4.00;3.67;;;19.20;42.60;;;;;;4989336;28;20271;-66
2023/12/18 09:06:39;;;;;;;4.80;4.40;;;19.20;42.50;;;;;;4983917;28;20251;-66
2023/12/18 09:09:04;;;;;;;4.70;3.90;;;19.20;42.50;;;;;;4994446;28;20237;-66
2023/12/18 09:11:33;;;;;;;4.90;4.60;;;19.20;42.50;;;;;;4994122;28;20855;-66
2023/12/18 09:13:59;;;;;;;4.47;4.17;;;19.20;42.50;;;;;;4990881;28;20245;-66
2023/12/18 09:16:25;;;;;;;4.97;4.60;;;19.20;42.50;;;;;;4997183;28;20503;-66
2023/12/18 09:18:50;;;;;;;4.63;4.23;;;19.20;42.50;;;;;;5001033;28;20459;-66
2023/12/18 09:21:16;;;;;;;4.60;4.30;;;19.20;43.20;;;;;;4998442;28;20642;-66
2023/12/18 09:23:44;;;;;;;4.50;4.30;;;19.20;42.50;;;;;;4996755;28;20396;-65
2023/12/18 09:26:10;;;;;;;5.20;4.80;;;19.20;42.50;;;;;;5000495;28;20309;-66
2023/12/18 09:28:35;;;;;;;4.90;4.50;;;19.20;42.50;;;;;;4995008;28;20556;-66
2023/12/18 09:31:01;;;;;;;4.87;4.40;;;19.20;42.50;;;;;;4988844;28;20535;-66
2023/12/18 09:33:26;;;;;;;4.73;4.30;;;19.20;42.50;;;;;;4999125;28;20227;-66
2023/12/18 09:35:52;;;;;;;4.50;4.20;;;19.20;43.30;;;;;;5000043;28;20588;-66
2023/12/18 09:38:19;;;;;;;5.03;4.63;;;19.20;42.60;;;;;;4997169;28;20707;-66
2023/12/18 09:40:45;;;;;;;4.83;4.43;;;19.20;42.50;;;;;;5004780;28;20231;-66
2023/12/18 09:43:16;;;;;;;5.23;4.83;;;19.20;42.50;;;;;;4992669;28;21199;-66
2023/12/18 09:45:47;;;;;;;4.27;3.97;;;19.20;42.50;;;;;;4995335;28;20293;-66
2023/12/18 09:48:13;;;;;;;5.03;4.63;;;19.20;43.20;;;;;;5001246;28;21127;-66
2023/12/18 09:50:39;;;;;;;4.60;4.30;;;19.20;42.50;;;;;;4998066;28;20470;-66
2023/12/18 09:53:10;;;;;;;4.70;4.40;;;19.20;42.60;;;;;;4998396;28;20502;-66
2023/12/18 09:55:36;;;;;;;5.00;4.63;;;19.20;42.50;;;;;;4995062;28;20435;-66
2023/12/18 09:58:02;;;;;;;4.43;4.03;;;19.20;42.50;;;;;;5000390;28;21250;-66
2023/12/18 10:00:28;;;;;;;4.37;4.07;;;19.20;42.50;;;;;;4992623;28;20231;-65
2023/12/18 10:02:56;;;;;;;4.50;4.20;;;19.20;42.50;;;;;;4998163;28;20223;-66
2023/12/18 10:05:22;;;;;;;4.30;4.00;;;19.20;42.50;;;;;;4996478;28;20478;-65
2023/12/18 10:07:48;;;;;;;4.63;4.33;;;19.20;42.50;;;;;;4997548;28;20468;-66
2023/12/18 10:10:15;;;;;;;3.83;3.60;;;19.20;42.50;;;;;;5000191;28;21036;-66
2023/12/18 10:12:41;;;;;;;4.47;4.27;;;19.20;42.50;;;;;;4989880;28;21046;-66
2023/12/18 10:15:09;;;;;;;4.63;4.23;;;19.20;42.50;;;;;;4995370;28;20435;-66
2023/12/18 10:17:34;;;;;;;4.10;3.70;;;19.20;42.60;;;;;;4993213;28;20235;-66
2023/12/18 10:20:03;;;;;;;4.83;4.53;;;19.20;42.50;;;;;;4993924;28;20451;-66
2023/12/18 10:22:29;;;;;;;5.30;4.80;;;19.20;42.50;;;;;;5000806;28;20563;-66
2023/12/18 10:24:57;;;;;;;27.97;5.47;;;19.20;42.50;;;;;;4993540;28;20451;-66
2023/12/18 10:27:22;;;;;;;4.90;4.57;;;19.20;42.50;;;;;;4997545;28;20231;-66
2023/12/18 10:29:48;;;;;;;4.20;3.80;;;19.20;42.50;;;;;;4999573;28;20453;-66
2023/12/18 10:32:13;;;;;;;4.67;4.20;;;19.20;42.50;;;;;;4996558;28;20297;-66
2023/12/18 10:34:39;;;;;;;4.00;3.80;;;19.10;42.40;;;;;;4991837;28;20227;-66
2023/12/18 10:37:05;;;;;;;4.80;4.50;;;19.10;42.40;;;;;;5001035;28;20756;-65
2023/12/18 10:39:35;;;;;;;4.40;4.20;;;19.10;42.40;;;;;;4996174;28;20242;-66
2023/12/18 10:42:06;;;;;;;4.20;3.93;;;19.10;42.40;;;;;;4995506;28;20639;-66
2023/12/18 10:44:34;;;;;;;4.30;4.00;;;19.10;42.50;;;;;;4994560;28;20428;-66
2023/12/18 10:47:01;;;;;;;3.77;3.40;;;19.10;42.40;;;;;;4994419;28;20697;-66
2023/12/18 10:49:28;;;;;;;4.40;4.00;;;19.10;42.40;;;;;;4984698;28;20585;-66
2023/12/18 10:51:56;;;;;;;4.33;4.03;;;19.10;42.40;;;;;;5006053;28;20489;-66
2023/12/18 10:54:24;;;;;;;3.97;3.77;;;19.10;42.40;;;;;;5004119;28;20440;-66
2023/12/18 10:56:51;;;;;;;4.33;4.07;;;19.10;42.40;;;;;;4998810;28;20468;-66
2023/12/18 10:59:18;;;;;;;3.90;3.70;;;19.10;42.40;;;;;;4999674;28;20490;-66
2023/12/18 11:01:45;;;;;;;4.20;3.90;;;19.10;42.40;;;;;;4998991;28;20926;-66
2023/12/18 11:04:12;;;;;;;3.77;3.57;;;19.10;42.40;;;;;;4995272;28;20967;-66
2023/12/18 11:06:39;;;;;;;4.03;3.50;;;19.10;42.40;;;;;;5002460;28;20438;-66
2023/12/18 11:09:05;;;;;;;4.10;3.80;;;19.10;42.40;;;;;;4998554;28;21293;-66
2023/12/18 11:11:33;;;;;;;3.73;3.43;;;19.10;42.40;;;;;;5000759;28;20465;-66
2023/12/18 11:14:33;;;;;;;4.63;4.30;;;19.10;42.40;;;;;;5002718;28;20311;-66
2023/12/18 11:17:37;;;;;;;4.13;3.83;;;19.10;42.40;;;;;;4998125;28;20430;-66
2023/12/18 11:20:35;;;;;;;3.80;3.43;;;19.10;42.40;;;;;;4992144;28;20559;-66
2023/12/18 11:23:01;;;;;;;3.43;3.23;;;19.10;42.50;;;;;;4992531;28;20461;-66
2023/12/18 11:25:49;;;;;;;3.73;3.53;;;19.10;42.40;;;;;;4995254;28;20862;-66
2023/12/18 11:28:17;;;;;;;4.50;4.20;;;19.10;42.40;;;;;;4996190;28;20431;-66
2023/12/18 11:30:43;;;;;;;3.43;3.23;;;19.10;42.40;;;;;;4994688;28;20426;-66
2023/12/18 11:33:11;;;;;;;3.73;3.53;;;19.10;42.50;;;;;;4990018;28;21152;-66
2023/12/18 11:35:38;;;;;;;3.40;3.20;;;19.10;42.40;;;;;;4993767;28;20439;-66
2023/12/18 11:38:09;;;;;;;3.50;3.20;;;19.10;42.50;;;;;;4988410;28;20467;-66
2023/12/18 11:40:36;;;;;;;3.20;3.00;;;19.10;42.50;;;;;;4994137;28;20978;-66
2023/12/18 11:43:03;;;;;;;3.50;3.30;;;19.10;42.40;;;;;;4994663;28;20469;-66
2023/12/18 11:45:30;;;;;;;3.67;3.47;;;19.10;42.40;;;;;;4995259;28;20599;-66
2023/12/18 11:47:57;;;;;;;3.30;3.10;;;19.10;42.40;;;;;;4997865;28;20547;-66
2023/12/18 11:50:26;;;;;;;3.80;3.50;;;19.10;42.40;;;;;;4997228;28;20446;-66
2023/12/18 11:52:55;;;;;;;4.80;3.60;;;19.10;43.20;;;;;;4989331;28;20494;-66
2023/12/18 11:55:40;;;;;;;3.70;3.50;;;19.10;42.40;;;;;;4993738;28;20477;-66
2023/12/18 11:58:07;;;;;;;3.43;3.23;;;19.10;42.40;;;;;;4989726;28;20477;-66
2023/12/18 12:00:33;;;;;;;4.30;4.10;;;19.10;42.40;;;;;;4996400;28;20450;-66
2023/12/18 12:03:02;;;;;;;3.93;3.70;;;19.10;42.40;;;;;;4998681;28;20455;-66
2023/12/18 12:05:37;;;;;;;3.43;3.23;;;19.10;42.40;;;;;;4996197;28;20428;-66
2023/12/18 12:08:03;;;;;;;3.60;3.40;;;19.10;42.50;;;;;;4999240;28;20439;-66
2023/12/18 12:10:29;;;;;;;3.83;3.63;;;19.10;42.40;;;;;;4991567;28;20455;-67
2023/12/18 12:12:56;;;;;;;3.07;2.87;;;19.10;43.20;;;;;;4993217;28;20251;-66
2023/12/18 12:15:27;;;;;;;3.63;3.33;;;19.10;42.40;;;;;;4997918;28;20224;-66
2023/12/18 12:18:04;;;;;;;3.77;3.57;;;19.10;42.40;;;;;;5001011;28;20466;-66
2023/12/18 12:20:30;;;;;;;3.33;3.13;;;19.10;42.40;;;;;;4992989;28;20447;-66
2023/12/18 12:22:56;;;;;;;3.83;3.63;;;19.10;42.40;;;;;;4994518;28;20437;-66
2023/12/18 12:25:21;;;;;;;3.83;3.50;;;19.10;42.40;;;;;;4980898;28;20443;-66
2023/12/18 12:27:47;;;;;;;3.43;3.23;;;19.10;42.50;;;;;;4993421;28;20590;-65
2023/12/18 12:30:13;;;;;;;3.00;2.80;;;19.10;42.40;;;;;;4991359;28;22261;-65
2023/12/18 12:32:39;;;;;;;3.20;3.00;;;19.10;42.40;;;;;;4991883;28;20228;-65
2023/12/18 12:35:07;;;;;;;3.30;3.10;;;19.10;42.40;;;;;;4997451;28;20468;-66
2023/12/18 12:37:33;;;;;;;3.30;2.97;;;19.10;42.40;;;;;;4989143;28;20522;-66
2023/12/18 12:40:00;;;;;;;3.73;3.53;;;19.10;42.40;;;;;;4988418;28;20976;-66
2023/12/18 12:42:26;;;;;;;3.30;3.10;;;19.10;42.40;;;;;;4993264;28;20692;-66